createdAt,value
2017-07-06T00:00:58.528Z,48.95
2017-07-06T00:02:07.811Z,48.97
2017-07-06T00:03:16.789Z,48.95
2017-07-06T00:04:25.439Z,48.95
2017-07-06T00:05:34.707Z,49.24
2017-07-06T00:06:44.304Z,49.15
2017-07-06T00:07:53.900Z,49.63
2017-07-06T00:09:02.552Z,49.63
2017-07-06T00:10:11.192Z,50.02
2017-07-06T00:11:20.783Z,50.02
2017-07-06T00:12:30.066Z,50.02
2017-07-06T00:13:39.336Z,49.73
2017-07-06T00:14:47.989Z,49.92
2017-07-06T00:15:57.273Z,49.92
2017-07-06T00:17:06.242Z,49.99
2017-07-06T00:18:15.514Z,50.02
2017-07-06T00:19:24.485Z,50.31
2017-07-06T00:20:33.770Z,50.28
2017-07-06T00:21:42.739Z,50.21
2017-07-06T00:22:52.013Z,50.12
2017-07-06T00:24:00.979Z,50.12
2017-07-06T00:25:09.976Z,50.02
2017-07-06T00:26:18.638Z,50.09
2017-07-06T00:27:28.218Z,50.28
2017-07-06T00:28:37.513Z,50.09
2017-07-06T00:29:46.787Z,50.18
2017-07-06T00:30:55.806Z,50.31
2017-07-06T00:32:04.874Z,50.12
2017-07-06T00:33:13.840Z,50.38
2017-07-06T00:34:22.807Z,50.02
2017-07-06T00:35:31.465Z,50.12
2017-07-06T00:36:40.109Z,50.5
2017-07-06T00:37:50.005Z,50.67
2017-07-06T00:38:59.594Z,50.38
2017-07-06T00:40:08.873Z,50.38
2017-07-06T00:41:17.842Z,50.48
2017-07-06T00:42:26.481Z,50.48
2017-07-06T00:43:35.618Z,50.48
2017-07-06T00:44:44.259Z,50.57
2017-07-06T00:45:53.842Z,50.57
2017-07-06T00:47:02.802Z,50.18
2017-07-06T00:48:11.774Z,50.18
2017-07-06T00:49:20.731Z,50.48
2017-07-06T00:50:29.702Z,50.18
2017-07-06T00:51:39.295Z,50.12
2017-07-06T00:52:48.261Z,50.21
2017-07-06T00:53:57.853Z,50.09
2017-07-06T00:55:06.839Z,50.09
2017-07-06T00:56:16.111Z,50.18
2017-07-06T00:57:25.399Z,49.9
2017-07-06T00:58:34.685Z,50.12
2017-07-06T00:59:43.970Z,49.99
2017-07-06T01:00:52.939Z,50.12
2017-07-06T01:02:02.522Z,50.12
2017-07-06T01:03:11.176Z,50.09
2017-07-06T01:04:20.444Z,50.18
2017-07-06T01:05:29.723Z,50.21
2017-07-06T01:06:38.998Z,49.92
2017-07-06T01:07:47.976Z,49.92
2017-07-06T01:08:56.947Z,49.92
2017-07-06T01:10:05.648Z,49.92
2017-07-06T01:11:14.609Z,49.92
2017-07-06T01:12:23.574Z,49.54
2017-07-06T01:13:32.841Z,49.63
2017-07-06T01:14:41.801Z,49.34
2017-07-06T01:15:51.091Z,49.44
2017-07-06T01:16:59.742Z,49.92
2017-07-06T01:18:08.390Z,50.02
2017-07-06T01:19:17.674Z,49.63
2017-07-06T01:20:26.628Z,50.12
2017-07-06T01:21:35.905Z,50.12
2017-07-06T01:22:44.566Z,50.21
2017-07-06T01:23:53.230Z,50.79
2017-07-06T01:25:02.224Z,50.38
2017-07-06T01:26:11.500Z,50.5
2017-07-06T01:27:20.459Z,50.7
2017-07-06T01:28:29.424Z,50.86
2017-07-06T01:29:38.137Z,50.76
2017-07-06T01:30:47.102Z,50.86
2017-07-06T01:31:56.058Z,50.96
2017-07-06T01:33:04.702Z,50.76
2017-07-06T01:34:14.076Z,50.4
2017-07-06T01:35:23.360Z,50.48
2017-07-06T01:36:32.006Z,50.21
2017-07-06T01:37:40.647Z,50.21
2017-07-06T01:38:49.934Z,50.21
2017-07-06T01:39:58.587Z,50.31
2017-07-06T01:41:07.874Z,49.82
2017-07-06T01:42:16.839Z,50.12
2017-07-06T01:43:25.810Z,49.54
2017-07-06T01:44:35.091Z,49.95
2017-07-06T01:45:44.371Z,50.02
2017-07-06T01:46:53.971Z,50.31
2017-07-06T01:48:02.613Z,50.14
2017-07-06T01:49:11.567Z,50.14
2017-07-06T01:50:20.835Z,50.14
2017-07-06T01:51:30.101Z,50.14
2017-07-06T01:52:39.693Z,50.14
2017-07-06T01:53:48.662Z,50.04
2017-07-06T01:54:57.624Z,49.65
2017-07-06T01:56:06.339Z,49.65
2017-07-06T01:57:15.306Z,49.75
2017-07-06T01:58:24.894Z,49.65
2017-07-06T01:59:33.534Z,49.75
2017-07-06T02:00:42.822Z,49.27
2017-07-06T02:01:52.096Z,49.46
2017-07-06T02:03:01.360Z,50.14
2017-07-06T02:04:10.977Z,49.95
2017-07-06T02:05:19.628Z,49.95
2017-07-06T02:06:28.604Z,50.33
2017-07-06T02:07:37.884Z,50.12
2017-07-06T02:08:46.854Z,50.02
2017-07-06T02:09:56.460Z,49.92
2017-07-06T02:11:05.763Z,50.21
2017-07-06T02:12:15.365Z,50.31
2017-07-06T02:13:24.323Z,50.31
2017-07-06T02:14:33.596Z,50.04
2017-07-06T02:15:42.286Z,49.85
2017-07-06T02:16:50.943Z,49.65
2017-07-06T02:17:59.912Z,50.14
2017-07-06T02:19:08.880Z,50.04
2017-07-06T02:20:17.845Z,50.14
2017-07-06T02:21:27.121Z,50.14
2017-07-06T02:22:36.079Z,50.04
2017-07-06T02:23:45.051Z,49.37
2017-07-06T02:24:53.709Z,49.75
2017-07-06T02:26:02.989Z,49.75
2017-07-06T02:27:12.578Z,49.75
2017-07-06T02:28:22.171Z,49.17
2017-07-06T02:29:31.449Z,49.17
2017-07-06T02:30:40.778Z,49.17
2017-07-06T02:31:50.058Z,49.56
2017-07-06T02:32:59.018Z,49.37
2017-07-06T02:34:08.606Z,49.39
2017-07-06T02:35:17.565Z,49.75
2017-07-06T02:36:26.532Z,49.65
2017-07-06T02:37:35.493Z,50.14
2017-07-06T02:38:44.463Z,49.56
2017-07-06T02:39:53.110Z,50.14
2017-07-06T02:41:02.374Z,50.04
2017-07-06T02:42:11.024Z,49.85
2017-07-06T02:43:20.355Z,50.04
2017-07-06T02:44:29.326Z,49.95
2017-07-06T02:45:38.287Z,49.56
2017-07-06T02:46:47.560Z,49.85
2017-07-06T02:47:56.244Z,50.14
2017-07-06T02:49:05.630Z,50.24
2017-07-06T02:50:14.598Z,49.65
2017-07-06T02:51:23.251Z,49.56
2017-07-06T02:52:31.896Z,49.56
2017-07-06T02:53:41.173Z,49.68
2017-07-06T02:54:50.474Z,50.04
2017-07-06T02:55:59.443Z,50.04
2017-07-06T02:57:08.514Z,49.85
2017-07-06T02:58:17.805Z,49.95
2017-07-06T02:59:26.770Z,49.65
2017-07-06T03:00:36.040Z,49.95
2017-07-06T03:01:45.411Z,49.95
2017-07-06T03:02:54.364Z,49.56
2017-07-06T03:04:03.321Z,50.04
2017-07-06T03:05:12.294Z,49.65
2017-07-06T03:06:21.252Z,50.24
2017-07-06T03:07:30.545Z,50.33
2017-07-06T03:08:39.530Z,49.85
2017-07-06T03:09:48.822Z,49.85
2017-07-06T03:10:58.112Z,49.95
2017-07-06T03:12:07.073Z,49.65
2017-07-06T03:13:16.032Z,49.95
2017-07-06T03:14:24.998Z,49.97
2017-07-06T03:15:33.960Z,49.68
2017-07-06T03:16:43.618Z,50.04
2017-07-06T03:17:52.586Z,50.43
2017-07-06T03:19:01.879Z,50.24
2017-07-06T03:20:10.536Z,50.04
2017-07-06T03:21:19.193Z,49.85
2017-07-06T03:22:28.167Z,49.95
2017-07-06T03:23:37.124Z,50.04
2017-07-06T03:24:46.408Z,50.33
2017-07-06T03:25:55.065Z,50.26
2017-07-06T03:27:04.355Z,50.33
2017-07-06T03:28:13.631Z,50.14
2017-07-06T03:29:22.286Z,50.24
2017-07-06T03:30:32.043Z,50.14
2017-07-06T03:31:40.705Z,50.52
2017-07-06T03:32:49.688Z,50.43
2017-07-06T03:33:58.641Z,50.89
2017-07-06T03:35:07.611Z,51.08
2017-07-06T03:36:16.876Z,50.89
2017-07-06T03:37:25.842Z,51.18
2017-07-06T03:38:35.438Z,51.56
2017-07-06T03:39:44.090Z,51.83
2017-07-06T03:40:53.050Z,51.83
2017-07-06T03:42:02.006Z,52.02
2017-07-06T03:43:11.910Z,51.83
2017-07-06T03:44:21.510Z,51.93
2017-07-06T03:45:31.126Z,52.22
2017-07-06T03:46:40.101Z,52.61
2017-07-06T03:47:49.385Z,52.67
2017-07-06T03:48:58.348Z,52.97
2017-07-06T03:50:07.309Z,52.58
2017-07-06T03:51:16.598Z,52.77
2017-07-06T03:52:25.892Z,53.45
2017-07-06T03:53:34.878Z,52.67
2017-07-06T03:54:43.519Z,53.55
2017-07-06T03:55:52.535Z,53.06
2017-07-06T03:57:01.509Z,52.67
2017-07-06T03:58:10.162Z,53.06
2017-07-06T03:59:19.438Z,53.55
2017-07-06T04:00:28.082Z,52.97
2017-07-06T04:01:37.376Z,53.03
2017-07-06T04:02:46.674Z,53.06
2017-07-06T04:03:55.642Z,52.48
2017-07-06T04:05:04.925Z,52.77
2017-07-06T04:06:13.881Z,52.87
2017-07-06T04:07:22.847Z,52.48
2017-07-06T04:08:31.505Z,52.67
2017-07-06T04:09:41.105Z,52.67
2017-07-06T04:10:49.778Z,52.22
2017-07-06T04:11:59.393Z,52.09
2017-07-06T04:13:09.314Z,52.12
2017-07-06T04:14:18.593Z,51.93
2017-07-06T04:15:28.197Z,52.12
2017-07-06T04:16:37.803Z,51.93
2017-07-06T04:17:46.462Z,51.93
2017-07-06T04:18:56.051Z,51.83
2017-07-06T04:20:05.008Z,51.93
2017-07-06T04:21:13.982Z,51.73
2017-07-06T04:22:22.636Z,51.64
2017-07-06T04:23:31.911Z,51.47
2017-07-06T04:24:40.876Z,51.06
2017-07-06T04:25:49.851Z,51.37
2017-07-06T04:26:59.136Z,51.15
2017-07-06T04:28:08.091Z,51.08
2017-07-06T04:29:17.403Z,51.28
2017-07-06T04:30:26.818Z,51.47
2017-07-06T04:31:35.894Z,51.06
2017-07-06T04:32:45.652Z,51.18
2017-07-06T04:33:54.636Z,50.98
2017-07-06T04:35:03.606Z,50.98
2017-07-06T04:36:12.593Z,51.47
2017-07-06T04:37:21.895Z,51.35
2017-07-06T04:38:30.883Z,51.37
2017-07-06T04:39:40.476Z,51.54
2017-07-06T04:43:02.657Z,51.37
2017-07-06T04:44:11.623Z,51.44
2017-07-06T04:45:20.953Z,51.37
2017-07-06T04:46:29.632Z,51.08
2017-07-06T04:47:39.598Z,50.98
2017-07-06T04:48:49.211Z,51.18
2017-07-06T04:49:58.186Z,51.47
2017-07-06T04:51:07.620Z,51.18
2017-07-06T04:52:16.286Z,51.47
2017-07-06T04:53:25.264Z,51.37
2017-07-06T04:54:34.553Z,51.08
2017-07-06T04:55:43.210Z,51.28
2017-07-06T04:56:51.862Z,51.18
2017-07-06T04:58:01.150Z,51.18
2017-07-06T04:59:10.106Z,51.37
2017-07-06T05:00:19.390Z,51.56
2017-07-06T05:01:28.043Z,51.37
2017-07-06T05:02:37.162Z,51.37
2017-07-06T05:03:46.444Z,51.47
2017-07-06T05:04:55.402Z,51.18
2017-07-06T05:06:04.680Z,50.89
2017-07-06T05:07:13.697Z,51.37
2017-07-06T05:08:22.487Z,51.37
2017-07-06T05:09:31.454Z,51.37
2017-07-06T05:10:40.729Z,51.47
2017-07-06T05:11:50.326Z,51.08
2017-07-06T05:13:00.267Z,50.98
2017-07-06T05:14:09.234Z,51.08
2017-07-06T05:15:18.534Z,51.08
2017-07-06T05:16:27.815Z,51.28
2017-07-06T05:17:36.475Z,50.7
2017-07-06T05:18:45.136Z,51.1
2017-07-06T05:19:54.479Z,50.33
2017-07-06T05:21:03.441Z,50.33
2017-07-06T05:22:12.429Z,50.43
2017-07-06T05:23:21.088Z,50.24
2017-07-06T05:24:30.054Z,50.07
2017-07-06T05:25:39.016Z,49.39
2017-07-06T05:26:47.987Z,49.29
2017-07-06T05:27:56.959Z,49.22
2017-07-06T05:29:06.881Z,48.93
2017-07-06T05:30:15.541Z,48.54
2017-07-06T05:31:24.558Z,48.57
2017-07-06T05:32:33.832Z,48.27
2017-07-06T05:33:42.487Z,47.98
2017-07-06T05:34:51.774Z,47.4
2017-07-06T05:36:01.061Z,47.33
2017-07-06T05:37:09.851Z,47.23
2017-07-06T05:38:18.517Z,46.86
2017-07-06T05:39:27.176Z,46.77
2017-07-06T05:40:35.843Z,46.86
2017-07-06T05:41:45.455Z,46.69
2017-07-06T05:42:54.862Z,46.01
2017-07-06T05:44:04.139Z,46.11
2017-07-06T05:45:13.410Z,45.92
2017-07-06T05:46:22.365Z,46.14
2017-07-06T05:47:31.667Z,45.55
2017-07-06T05:48:41.406Z,45.45
2017-07-06T05:49:50.706Z,45.55
2017-07-06T05:50:59.983Z,45.26
2017-07-06T05:52:08.945Z,45.38
2017-07-06T05:53:17.927Z,44.99
2017-07-06T05:54:27.315Z,44.33
2017-07-06T05:55:36.284Z,44.72
2017-07-06T05:56:44.932Z,44.04
2017-07-06T05:57:53.910Z,44.26
2017-07-06T05:59:02.877Z,44.43
2017-07-06T06:00:12.633Z,44.53
2017-07-06T06:01:21.909Z,44.53
2017-07-06T06:02:31.513Z,44.62
2017-07-06T06:03:40.480Z,44.33
2017-07-06T06:04:49.776Z,44.24
2017-07-06T06:05:58.898Z,44.35
2017-07-06T06:07:08.181Z,44.33
2017-07-06T06:08:17.140Z,44.35
2017-07-06T06:09:26.106Z,44.45
2017-07-06T06:10:34.777Z,44.45
2017-07-06T06:11:43.549Z,44.35
2017-07-06T06:12:52.560Z,44.26
2017-07-06T06:14:01.530Z,44.35
2017-07-06T06:15:10.810Z,44.35
2017-07-06T06:16:19.768Z,44.55
2017-07-06T06:17:28.540Z,44.06
2017-07-06T06:18:37.875Z,44.26
2017-07-06T06:19:47.149Z,44.48
2017-07-06T06:20:56.426Z,43.96
2017-07-06T06:22:05.089Z,43.89
2017-07-06T06:23:14.103Z,43.99
2017-07-06T06:24:23.385Z,43.99
2017-07-06T06:25:32.356Z,43.71
2017-07-06T06:26:41.324Z,43.33
2017-07-06T06:27:50.605Z,43.23
2017-07-06T06:29:00.049Z,43.62
2017-07-06T06:30:09.711Z,43.33
2017-07-06T06:31:19.310Z,43.13
2017-07-06T06:32:27.970Z,42.84
2017-07-06T06:33:37.246Z,42.66
2017-07-06T06:34:45.956Z,42.96
2017-07-06T06:35:55.233Z,42.57
2017-07-06T06:37:04.198Z,42.76
2017-07-06T06:38:13.173Z,42.69
2017-07-06T06:39:22.131Z,42.96
2017-07-06T06:40:30.949Z,42.69
2017-07-06T06:41:40.554Z,42.2
2017-07-06T06:42:50.478Z,42.49
2017-07-06T06:44:00.093Z,42.69
2017-07-06T06:45:09.438Z,42.79
2017-07-06T06:46:18.252Z,42.59
2017-07-06T06:47:27.536Z,42.49
2017-07-06T06:48:36.823Z,42.59
2017-07-06T06:49:45.493Z,42.59
2017-07-06T06:50:54.463Z,42.69
2017-07-06T06:52:03.925Z,42.79
2017-07-06T06:53:13.240Z,42.79
2017-07-06T06:54:22.845Z,42.98
2017-07-06T06:55:31.809Z,42.98
2017-07-06T06:56:40.803Z,42.79
2017-07-06T06:57:50.284Z,42.69
2017-07-06T06:58:59.886Z,42.98
2017-07-06T07:00:09.190Z,42.88
2017-07-06T07:01:18.863Z,43.27
2017-07-06T07:02:27.832Z,43.08
2017-07-06T07:03:37.169Z,43.08
2017-07-06T07:04:45.825Z,42.98
2017-07-06T07:05:55.160Z,42.69
2017-07-06T07:07:04.144Z,42.59
2017-07-06T07:08:13.767Z,42.61
2017-07-06T07:09:22.569Z,42.8
2017-07-06T07:10:31.578Z,42.32
2017-07-06T07:11:40.575Z,42.41
2017-07-06T07:12:49.859Z,42.44
2017-07-06T07:13:59.176Z,42.44
2017-07-06T07:15:08.657Z,41.66
2017-07-06T07:16:17.959Z,41.36
2017-07-06T07:17:26.928Z,40.99
2017-07-06T07:18:36.237Z,41.09
2017-07-06T07:19:45.530Z,40.92
2017-07-06T07:20:55.241Z,40.43
2017-07-06T07:22:04.652Z,40.04
2017-07-06T07:23:13.972Z,39.47
2017-07-06T07:24:23.376Z,39.47
2017-07-06T07:25:32.374Z,39.1
2017-07-06T07:26:41.856Z,38.81
2017-07-06T07:27:50.561Z,38.14
2017-07-06T07:28:59.883Z,38.26
2017-07-06T07:30:09.512Z,38.06
2017-07-06T07:31:18.491Z,37.59
2017-07-06T07:32:27.937Z,37.39
2017-07-06T07:33:37.027Z,36.82
2017-07-06T07:34:46.015Z,36.55
2017-07-06T07:35:55.341Z,36.25
2017-07-06T07:37:04.976Z,35.78
2017-07-06T07:38:13.802Z,35.49
2017-07-06T07:39:22.781Z,35.41
2017-07-06T07:40:32.095Z,35.13
2017-07-06T07:41:41.381Z,34.93
2017-07-06T07:42:50.375Z,34.95
2017-07-06T07:43:59.498Z,34.77
2017-07-06T07:45:08.800Z,34.28
2017-07-06T07:46:18.092Z,33.98
2017-07-06T07:47:26.758Z,34
2017-07-06T07:48:36.067Z,33.51
2017-07-06T07:49:45.166Z,33.82
2017-07-06T07:50:54.759Z,33.05
2017-07-06T07:52:03.433Z,32.86
2017-07-06T07:53:12.743Z,32.76
2017-07-06T07:54:21.708Z,32.48
2017-07-06T07:55:30.774Z,32.48
2017-07-06T07:56:39.431Z,32.2
2017-07-06T07:57:48.730Z,32.2
2017-07-06T07:58:58.024Z,32.01
2017-07-06T08:00:06.998Z,31.72
2017-07-06T08:01:15.960Z,31.83
2017-07-06T08:02:25.269Z,31.62
2017-07-06T08:03:34.562Z,31.54
2017-07-06T08:04:43.856Z,31.63
2017-07-06T08:05:52.859Z,31.93
2017-07-06T08:07:01.614Z,32.13
2017-07-06T08:08:10.908Z,32.11
2017-07-06T08:09:19.575Z,32.6
2017-07-06T08:10:28.566Z,32.98
2017-07-06T08:11:37.225Z,33.58
2017-07-06T08:12:46.357Z,34.23
2017-07-06T08:13:55.333Z,34.51
2017-07-06T08:15:04.980Z,34.99
2017-07-06T08:16:14.577Z,35.18
2017-07-06T08:17:23.572Z,35.47
2017-07-06T08:18:33.005Z,35.66
2017-07-06T08:19:41.978Z,35.75
2017-07-06T08:20:51.905Z,35.85
2017-07-06T08:22:00.568Z,34.97
2017-07-06T08:23:09.852Z,34.7
2017-07-06T08:24:18.727Z,34.41
2017-07-06T08:25:28.022Z,33.64
2017-07-06T08:26:36.997Z,33.26
2017-07-06T08:27:45.969Z,32.89
2017-07-06T08:28:54.943Z,32.51
2017-07-06T08:30:04.034Z,32.31
2017-07-06T08:31:13.331Z,32.13
2017-07-06T08:32:22.621Z,31.93
2017-07-06T08:33:31.615Z,31.83
2017-07-06T08:34:40.912Z,31.85
2017-07-06T08:35:49.988Z,31.95
2017-07-06T08:36:59.276Z,31.95
2017-07-06T08:38:08.945Z,32.34
2017-07-06T08:39:17.917Z,32.82
2017-07-06T08:40:26.643Z,33.39
2017-07-06T08:41:35.526Z,34.27
2017-07-06T08:42:44.188Z,34.64
2017-07-06T08:43:53.170Z,35.99
2017-07-06T08:45:02.457Z,36.07
2017-07-06T08:46:12.051Z,36.44
2017-07-06T08:47:21.036Z,36.83
2017-07-06T08:48:29.710Z,37.5
2017-07-06T08:49:39.309Z,37.78
2017-07-06T08:50:48.308Z,38.06
2017-07-06T08:51:57.294Z,38.25
2017-07-06T08:53:06.298Z,38.62
2017-07-06T08:54:15.281Z,39.11
2017-07-06T08:55:24.577Z,39.29
2017-07-06T08:56:34.228Z,39.47
2017-07-06T08:57:42.898Z,40.06
2017-07-06T08:58:51.694Z,40.43
2017-07-06T09:00:01.629Z,40.63
2017-07-06T09:01:10.921Z,41
2017-07-06T09:02:19.596Z,41.19
2017-07-06T09:03:28.278Z,41.29
2017-07-06T09:04:37.744Z,41.56
2017-07-06T09:05:46.716Z,41.86
2017-07-06T09:06:56.041Z,42.35
2017-07-06T09:08:04.719Z,42.13
2017-07-06T09:09:13.374Z,42.81
2017-07-06T09:10:22.450Z,42.69
2017-07-06T09:11:31.735Z,42.5
2017-07-06T09:12:40.411Z,43.18
2017-07-06T09:13:49.723Z,43.16
2017-07-06T09:14:59.334Z,43.36
2017-07-06T09:16:08.728Z,43.65
2017-07-06T09:17:18.323Z,43.65
2017-07-06T09:18:27.605Z,44.02
2017-07-06T09:19:36.887Z,44.21
2017-07-06T09:20:46.173Z,44.02
2017-07-06T09:21:55.300Z,44.58
2017-07-06T09:23:04.273Z,44.19
2017-07-06T09:24:13.263Z,44.38
2017-07-06T09:25:22.240Z,44.68
2017-07-06T09:26:31.526Z,44.78
2017-07-06T09:27:40.665Z,44.56
2017-07-06T09:28:49.331Z,44.56
2017-07-06T09:29:58.310Z,44.76
2017-07-06T09:31:06.980Z,44.66
2017-07-06T09:32:15.637Z,44.76
2017-07-06T09:33:25.600Z,44.66
2017-07-06T09:34:34.273Z,44.66
2017-07-06T09:35:43.257Z,44.93
2017-07-06T09:36:52.228Z,45.12
2017-07-06T09:38:01.200Z,45.22
2017-07-06T09:39:10.266Z,45.22
2017-07-06T09:40:19.551Z,45.12
2017-07-06T09:41:28.851Z,45.22
2017-07-06T09:42:38.461Z,45.03
2017-07-06T09:43:47.435Z,45.12
2017-07-06T09:44:56.404Z,44.83
2017-07-06T09:46:05.380Z,45.51
2017-07-06T09:47:14.673Z,45.12
2017-07-06T09:48:24.282Z,45.22
2017-07-06T09:49:33.560Z,45.22
2017-07-06T09:50:42.849Z,45.39
2017-07-06T09:51:51.502Z,45.2
2017-07-06T09:53:01.117Z,45.49
2017-07-06T09:54:10.102Z,45.39
2017-07-06T09:55:19.065Z,45.29
